マイアミ の空港の天気 - METARとTAF

マイアミ国際空港 ( KMIA / MIA ) - アメリカ フロリダ州マイアミ
飛行場実況気象(Metar)
観測時間06/18 02:53 EDT (06/18 06:53 UTC)
風向・風速静穏 0m/s
視程10km以上
天気現象
少しの雲 雲底高度 760m
少しの雲 雲底高度 1370m
全天の8割程度の雲 雲底高度 6710m
気温26.7℃
湿度87%
気圧1017.9hPa
METARKMIA 180653Z 00000KT 10SM FEW025 FEW045 BKN220 27/24 A3006 RMK AO2 SLP179 T02670244 $
過去の天気等 Google飛行場航空写真 Wunderground天気予報

過去48時間のMETAR

飛行場予報(TAF)
発表時間: 6/18 01:37 EDT (6/18 05:37 UTC)
予報対象時間: 18日2時 EDT ~ 19日8時 EDT
風向・風速不定 2m/s
視程10km以上
少しの雲 雲底高度 610m
全天の4割程度の雲 雲底高度 7620m
18日11時 EDT から
風向・風速東北東 4m/s
視程10km以上
少しの雲 雲底高度 910m
全天の4割程度の雲 雲底高度 1830m
全天の4割程度の雲 雲底高度 7620m
18日13時 EDT から
風向・風速東 6m/s
視程10km以上
天気現象周辺でしゅう雨
全天の4割程度の雲 雲底高度 760m
全天の8割程度の雲 雲底高度 1520m
全天の8割程度の雲 雲底高度 7620m
18日19時 EDT から
風向・風速東 4m/s
視程10km以上
少しの雲 雲底高度 910m
全天の4割程度の雲 雲底高度 1830m
全天の8割程度の雲 雲底高度 7620m
18日22時 EDT から
風向・風速不定 2m/s
視程10km以上
少しの雲 雲底高度 1830m
全天の8割程度の雲 雲底高度 7620m
KMIA 180537Z 1806/1912 VRB04KT P6SM FEW020 SCT250
FM181500 07007KT P6SM FEW030 SCT060 SCT250
FM181700 10011KT P6SM VCSH SCT025 BKN050 BKN250
FM182300 09007KT P6SM FEW030 SCT060 BKN250
FM190200 VRB04KT P6SM FEW060 BKN250